Time;durP1;ratioP1;P1;durP2;ratioP2;P2;SDS_P1;SDS_P2;PMS_P1;PMS_P2;Temp;Humidity;BMP_temperature;BMP_pressure;BME280_temperature;BME280_humidity;BME280_pressure;Samples;Min_cycle;Max_cycle;Signal;HPM_P1;HPM_P2
2021/12/14 00:00:19;;;;;;;15.90;11.27;;;8.40;99.90;;;;;;5052781;28;20471;-72
2021/12/14 00:02:46;;;;;;;15.55;11.18;;;8.40;99.90;;;;;;5052709;28;20123;-70
2021/12/14 00:05:15;;;;;;;15.02;11.07;;;8.40;99.90;;;;;;5052339;28;20076;-73
2021/12/14 00:07:41;;;;;;;17.77;11.60;;;8.40;99.90;;;;;;5053010;28;20095;-73
2021/12/14 00:13:03;;;;;;;17.02;11.73;;;8.40;99.90;;;;;;5052430;28;20041;-70
2021/12/14 00:15:29;;;;;;;17.63;11.90;;;8.40;99.90;;;;;;5052446;28;20043;-70
2021/12/14 00:18:03;;;;;;;18.23;11.88;;;8.40;99.90;;;;;;5052144;28;20102;-70
2021/12/14 00:20:37;;;;;;;16.70;11.50;;;8.40;99.90;;;;;;5052729;28;20508;-72
2021/12/14 00:25:35;;;;;;;18.75;11.43;;;8.40;99.90;;;;;;5052230;28;20045;-73
2021/12/14 00:28:06;;;;;;;17.48;11.73;;;8.30;99.90;;;;;;5052316;28;20131;-70
2021/12/14 00:30:33;;;;;;;20.15;12.05;;;8.40;99.90;;;;;;5052449;28;20453;-73
2021/12/14 00:32:59;;;;;;;16.98;11.73;;;8.40;99.90;;;;;;5052611;28;20090;-71
2021/12/14 00:35:25;;;;;;;18.23;12.70;;;8.40;99.90;;;;;;5051681;28;20057;-73
2021/12/14 00:37:53;;;;;;;20.58;13.38;;;8.40;99.90;;;;;;5052636;28;20045;-71
2021/12/14 00:40:25;;;;;;;18.75;13.38;;;8.40;99.90;;;;;;5052347;28;20047;-70
2021/12/14 00:42:51;;;;;;;22.17;13.73;;;8.40;99.90;;;;;;5051965;28;20467;-69
2021/12/14 00:45:19;;;;;;;20.58;13.52;;;8.40;99.90;;;;;;5052522;28;20042;-70
2021/12/14 00:47:45;;;;;;;19.98;13.35;;;8.40;99.90;;;;;;5052132;28;20047;-70
2021/12/14 00:50:12;;;;;;;23.05;13.77;;;8.30;99.90;;;;;;5052298;28;20491;-70
2021/12/14 00:52:37;;;;;;;21.70;13.68;;;8.40;99.90;;;;;;5052121;28;20052;-72
2021/12/14 00:55:07;;;;;;;21.65;13.75;;;8.30;99.90;;;;;;5052172;28;20037;-70
2021/12/14 00:57:36;;;;;;;20.05;13.35;;;8.30;99.90;;;;;;5051828;28;20045;-73
2021/12/14 01:00:11;;;;;;;21.88;14.90;;;8.30;99.90;;;;;;5053967;28;20048;-70
2021/12/14 01:02:38;;;;;;;21.98;14.35;;;8.30;99.90;;;;;;5056224;28;20044;-70
2021/12/14 01:05:12;;;;;;;22.98;14.90;;;8.30;99.90;;;;;;5055596;28;20041;-71
2021/12/14 01:07:38;;;;;;;22.92;14.60;;;8.30;99.90;;;;;;5039400;28;20049;-70
2021/12/14 01:10:31;;;;;;;19.88;14.50;;;8.30;99.90;;;;;;5039052;28;20052;-70
2021/12/14 01:13:03;;;;;;;20.52;13.93;;;8.30;99.90;;;;;;5056125;28;20049;-72
2021/12/14 01:16:00;;;;;;;24.10;14.95;;;8.30;99.90;;;;;;5055821;28;20041;-72
2021/12/14 01:21:20;;;;;;;24.25;14.82;;;8.30;99.90;;;;;;5055642;28;20190;-70
2021/12/14 01:23:46;;;;;;;21.30;14.23;;;8.30;99.90;;;;;;5055850;28;20048;-70
2021/12/14 01:26:16;;;;;;;24.35;14.85;;;8.30;99.90;;;;;;5055450;28;20040;-70
2021/12/14 01:28:43;;;;;;;21.52;13.90;;;8.30;99.90;;;;;;5038595;28;20048;-73
2021/12/14 01:31:26;;;;;;;21.98;14.63;;;8.30;99.90;;;;;;5055918;28;20049;-70
2021/12/14 01:33:56;;;;;;;22.88;14.27;;;8.30;99.90;;;;;;5055684;28;20056;-70
2021/12/14 01:41:49;;;;;;;21.63;13.63;;;8.30;99.90;;;;;;5052393;28;20067;-74
2021/12/14 01:44:15;;;;;;;23.88;15.10;;;8.30;99.90;;;;;;5035345;28;20052;-70
2021/12/14 01:46:52;;;;;;;21.00;14.15;;;8.30;99.90;;;;;;5035316;28;20175;-70
2021/12/14 01:49:18;;;;;;;20.98;14.73;;;8.30;99.90;;;;;;5035186;28;20388;-70
2021/12/14 01:51:48;;;;;;;19.20;14.27;;;8.30;99.90;;;;;;5034909;28;20045;-70
2021/12/14 01:54:18;;;;;;;21.23;14.30;;;8.30;99.90;;;;;;5019062;28;20048;-72
2021/12/14 01:56:44;;;;;;;20.35;14.35;;;8.30;99.90;;;;;;5035398;28;20171;-71
2021/12/14 01:59:14;;;;;;;21.10;14.20;;;8.20;99.90;;;;;;5035446;28;20442;-70
2021/12/14 02:02:09;;;;;;;21.35;14.00;;;8.30;99.90;;;;;;5035252;28;20049;-70
2021/12/14 02:04:40;;;;;;;21.55;14.38;;;8.30;99.90;;;;;;5035144;28;20134;-70
2021/12/14 02:07:09;;;;;;;24.80;15.93;;;8.30;99.90;;;;;;5052180;28;20041;-72
2021/12/14 02:09:36;;;;;;;22.77;14.45;;;8.30;99.90;;;;;;5035093;28;20045;-70
2021/12/14 02:12:15;;;;;;;22.40;15.48;;;8.30;99.90;;;;;;5050791;28;20041;-73
2021/12/14 02:14:41;;;;;;;25.20;15.18;;;8.30;99.90;;;;;;5043007;28;20368;-70
2021/12/14 02:17:09;;;;;;;25.75;15.88;;;8.30;99.90;;;;;;5055000;28;20494;-71
2021/12/14 02:19:36;;;;;;;22.15;14.90;;;8.30;99.90;;;;;;5054892;28;20155;-70
2021/12/14 02:22:04;;;;;;;24.17;15.38;;;8.20;99.90;;;;;;5055110;28;20048;-72
2021/12/14 02:24:30;;;;;;;24.35;15.25;;;8.20;99.90;;;;;;5037819;28;20383;-73
2021/12/14 02:26:56;;;;;;;29.27;16.95;;;8.20;99.90;;;;;;5054388;28;20036;-70
2021/12/14 02:29:27;;;;;;;27.77;16.90;;;8.20;99.90;;;;;;5054185;28;20053;-70
2021/12/14 02:32:00;;;;;;;28.52;16.83;;;8.20;99.90;;;;;;5038035;28;20052;-73
2021/12/14 02:34:26;;;;;;;26.30;16.85;;;8.20;99.90;;;;;;5053107;28;20452;-71
2021/12/14 02:36:52;;;;;;;28.80;16.58;;;8.30;99.90;;;;;;5037827;28;20136;-70
2021/12/14 02:39:48;;;;;;;26.48;16.30;;;8.20;99.90;;;;;;5037566;28;20045;-70
2021/12/14 02:42:25;;;;;;;26.60;17.13;;;8.20;99.90;;;;;;5037762;28;20045;-70
2021/12/14 02:44:54;;;;;;;30.15;17.67;;;8.20;99.90;;;;;;5054267;28;20041;-71
2021/12/14 02:47:21;;;;;;;31.40;18.15;;;8.20;99.90;;;;;;5054375;28;20049;-70
2021/12/14 02:49:51;;;;;;;28.92;18.02;;;8.20;99.90;;;;;;5054090;28;20048;-73
2021/12/14 02:52:27;;;;;;;32.40;19.17;;;8.20;99.90;;;;;;5053713;28;20052;-70
2021/12/14 02:54:57;;;;;;;27.80;18.02;;;8.30;99.90;;;;;;5053887;28;20044;-70
2021/12/14 02:57:29;;;;;;;29.25;19.13;;;8.20;99.90;;;;;;5054449;28;20052;-70
2021/12/14 02:59:56;;;;;;;34.17;19.67;;;8.20;99.90;;;;;;5053877;28;20395;-70
2021/12/14 03:02:27;;;;;;;31.20;19.55;;;8.20;99.90;;;;;;5053522;28;20040;-73
2021/12/14 03:04:56;;;;;;;29.08;18.65;;;8.20;99.90;;;;;;5053364;28;20049;-70
2021/12/14 03:07:27;;;;;;;30.20;18.50;;;8.20;99.90;;;;;;5053498;28;20475;-71
2021/12/14 03:12:42;;;;;;;33.75;20.55;;;8.20;99.90;;;;;;5053649;28;20467;-73
2021/12/14 03:15:45;;;;;;;33.20;20.25;;;8.20;99.90;;;;;;5053254;28;20045;-71
2021/12/14 03:18:14;;;;;;;37.28;20.67;;;8.20;99.90;;;;;;5070036;28;20387;-70
2021/12/14 03:20:56;;;;;;;32.33;19.88;;;8.20;99.90;;;;;;5053403;28;20052;-73
2021/12/14 03:23:32;;;;;;;34.92;21.23;;;8.20;99.90;;;;;;5051817;28;20048;-70
2021/12/14 03:26:01;;;;;;;35.90;21.65;;;8.20;99.90;;;;;;5053501;28;20037;-69
2021/12/14 03:28:29;;;;;;;37.10;21.97;;;8.20;99.90;;;;;;5053403;28;20471;-69
2021/12/14 03:31:09;;;;;;;36.20;21.65;;;8.20;99.90;;;;;;5053326;28;20189;-70
2021/12/14 03:33:47;;;;;;;37.40;21.15;;;8.20;99.90;;;;;;5053157;28;20057;-70
2021/12/14 03:36:17;;;;;;;37.45;22.42;;;8.20;99.90;;;;;;5052988;28;20585;-71
2021/12/14 03:39:15;;;;;;;37.42;23.20;;;8.20;99.90;;;;;;5053486;28;20081;-71
2021/12/14 03:41:50;;;;;;;37.03;21.60;;;8.20;99.90;;;;;;5051896;28;20048;-71
2021/12/14 03:44:21;;;;;;;36.97;22.13;;;8.20;99.90;;;;;;5052753;28;20080;-70
2021/12/14 03:46:59;;;;;;;38.38;22.23;;;8.20;99.90;;;;;;5053218;28;20040;-70
2021/12/14 03:49:33;;;;;;;39.55;23.75;;;8.20;99.90;;;;;;5052655;28;20072;-71
2021/12/14 03:52:00;;;;;;;39.17;23.55;;;8.20;99.90;;;;;;5052612;28;20033;-70
2021/12/14 03:54:26;;;;;;;40.95;22.30;;;8.20;99.90;;;;;;5052823;28;20052;-72
2021/12/14 03:56:52;;;;;;;40.33;24.05;;;8.20;99.90;;;;;;5052535;28;20045;-70
2021/12/14 03:59:18;;;;;;;41.08;24.95;;;8.20;99.90;;;;;;5052915;28;20080;-70
2021/12/14 04:01:47;;;;;;;40.10;24.55;;;8.20;99.90;;;;;;5036761;28;20084;-70
2021/12/14 04:04:23;;;;;;;38.78;23.95;;;8.10;99.90;;;;;;5036242;28;20051;-71
2021/12/14 04:06:56;;;;;;;42.28;25.58;;;8.10;99.90;;;;;;5052614;28;20075;-70
2021/12/14 04:09:25;;;;;;;39.47;23.58;;;8.10;99.90;;;;;;5052328;28;20476;-71
2021/12/14 04:11:51;;;;;;;44.95;25.25;;;8.10;99.90;;;;;;5052710;28;20128;-71
2021/12/14 04:14:17;;;;;;;41.67;25.20;;;8.10;99.90;;;;;;5052728;28;20052;-70
2021/12/14 04:16:46;;;;;;;46.63;25.83;;;8.10;99.90;;;;;;5052631;28;20074;-70
2021/12/14 04:19:21;;;;;;;44.30;25.63;;;8.10;99.90;;;;;;5052369;28;20126;-70
2021/12/14 04:21:47;;;;;;;46.55;25.38;;;8.10;99.90;;;;;;5052203;28;20601;-70
2021/12/14 04:24:14;;;;;;;43.47;25.40;;;8.20;99.90;;;;;;5052502;28;20045;-71
2021/12/14 04:26:44;;;;;;;42.08;25.75;;;8.10;99.90;;;;;;5052419;28;20042;-72
2021/12/14 04:29:12;;;;;;;42.35;25.92;;;8.10;99.90;;;;;;5052493;28;20052;-70
2021/12/14 04:31:40;;;;;;;46.20;26.45;;;8.10;99.90;;;;;;5052111;28;20128;-70
2021/12/14 04:34:06;;;;;;;44.75;25.70;;;8.10;99.90;;;;;;5052082;28;20060;-70
2021/12/14 04:36:32;;;;;;;47.65;26.75;;;8.10;99.90;;;;;;5051804;28;20057;-70
2021/12/14 04:39:24;;;;;;;46.30;26.85;;;8.00;99.90;;;;;;5052205;28;20041;-70
2021/12/14 04:53:10;;;;;;;50.28;27.92;;;8.00;99.90;;;;;;5051921;28;20120;-71
2021/12/14 04:55:42;;;;;;;47.47;28.23;;;7.90;99.90;;;;;;5051680;28;20044;-72
2021/12/14 04:58:08;;;;;;;45.92;27.23;;;7.90;99.90;;;;;;5052667;28;20131;-73
2021/12/14 05:00:52;;;;;;;46.40;27.58;;;7.90;99.90;;;;;;5035667;28;20045;-70
2021/12/14 05:03:42;;;;;;;48.17;28.05;;;7.90;99.90;;;;;;5051874;28;20547;-71
2021/12/14 05:06:13;;;;;;;;;;;7.90;99.90;;;;;;5035643;28;20037;-70
2021/12/14 05:11:15;;;;;;;51.60;28.85;;;7.80;99.90;;;;;;5052117;28;20052;-73
2021/12/14 05:13:45;;;;;;;51.03;29.13;;;7.90;99.90;;;;;;5051868;28;20127;-70
2021/12/14 05:16:22;;;;;;;51.42;29.17;;;7.90;99.90;;;;;;5034970;28;20102;-71
2021/12/14 05:18:56;;;;;;;49.78;28.02;;;7.90;99.90;;;;;;5035561;28;20045;-70
2021/12/14 05:21:32;;;;;;;51.67;29.27;;;7.90;99.90;;;;;;5052101;28;20086;-70
2021/12/14 05:23:59;;;;;;;51.75;29.75;;;7.90;99.90;;;;;;5051836;28;20098;-70
2021/12/14 05:26:25;;;;;;;51.55;28.48;;;7.90;99.90;;;;;;5051016;28;20037;-70
2021/12/14 05:28:53;;;;;;;52.30;28.23;;;7.90;99.90;;;;;;5051211;28;20045;-69
2021/12/14 05:31:19;;;;;;;55.53;30.27;;;7.90;99.90;;;;;;5051982;28;20036;-72
2021/12/14 05:33:45;;;;;;;51.00;29.23;;;7.90;99.90;;;;;;5052074;28;20107;-70
2021/12/14 05:36:15;;;;;;;47.83;26.80;;;7.90;99.90;;;;;;5051468;28;20052;-70
2021/12/14 05:38:54;;;;;;;52.42;30.58;;;8.00;99.90;;;;;;5051913;28;20099;-70
2021/12/14 05:44:17;;;;;;;53.05;29.63;;;7.90;99.90;;;;;;5051437;28;20118;-74
2021/12/14 05:46:50;;;;;;;54.13;30.83;;;7.90;99.90;;;;;;5051970;28;20126;-70
2021/12/14 05:49:21;;;;;;;53.17;29.77;;;7.90;99.90;;;;;;5055428;28;20550;-71
2021/12/14 05:51:49;;;;;;;54.78;31.08;;;7.90;99.90;;;;;;5037585;28;20442;-72
2021/12/14 05:54:23;;;;;;;51.45;30.48;;;7.90;99.90;;;;;;5055919;28;20037;-70
2021/12/14 05:56:51;;;;;;;55.63;31.02;;;7.90;99.90;;;;;;5054949;28;20391;-71
2021/12/14 05:59:19;;;;;;;55.60;30.98;;;8.00;99.90;;;;;;5055041;28;20487;-70
2021/12/14 06:01:45;;;;;;;55.88;31.30;;;8.00;99.90;;;;;;5055018;28;20093;-70
2021/12/14 06:04:11;;;;;;;57.50;31.98;;;7.90;99.90;;;;;;5054704;28;20124;-73
2021/12/14 06:06:41;;;;;;;60.03;33.70;;;8.00;99.90;;;;;;5055030;28;20128;-71
2021/12/14 06:09:13;;;;;;;60.55;34.33;;;7.90;99.90;;;;;;5054711;28;20060;-70
2021/12/14 06:11:40;;;;;;;57.88;31.45;;;7.90;99.90;;;;;;5055236;28;20041;-71
2021/12/14 06:14:19;;;;;;;57.95;32.15;;;8.00;99.90;;;;;;5038186;28;20124;-70
2021/12/14 06:16:48;;;;;;;62.80;34.85;;;7.90;99.90;;;;;;5054377;28;20049;-72
2021/12/14 06:19:22;;;;;;;65.13;34.43;;;7.90;99.90;;;;;;5054815;28;20041;-70
2021/12/14 06:22:01;;;;;;;62.55;32.60;;;7.90;99.90;;;;;;5054379;28;20049;-70
2021/12/14 06:24:30;;;;;;;63.50;34.42;;;8.00;99.90;;;;;;5054648;28;20094;-71
2021/12/14 06:26:59;;;;;;;67.47;35.17;;;7.90;99.90;;;;;;5037872;28;20049;-71
2021/12/14 06:29:36;;;;;;;68.93;34.15;;;7.90;99.90;;;;;;5054388;28;20375;-73
2021/12/14 06:32:21;;;;;;;72.22;35.80;;;7.90;99.90;;;;;;5038377;28;20103;-70
2021/12/14 06:34:54;;;;;;;69.57;36.13;;;7.90;99.90;;;;;;5054362;28;20052;-70
2021/12/14 06:40:08;;;;;;;74.65;38.03;;;7.80;99.90;;;;;;5034408;28;20064;-72
2021/12/14 06:42:39;;;;;;;73.87;37.03;;;7.90;99.90;;;;;;5054193;28;20039;-72
2021/12/14 06:45:16;;;;;;;74.55;37.58;;;7.90;99.90;;;;;;5053393;28;20075;-71
2021/12/14 06:47:44;;;;;;;74.35;37.22;;;7.80;99.90;;;;;;5054143;28;20064;-74
2021/12/14 06:50:22;;;;;;;75.85;38.40;;;7.80;99.90;;;;;;5037313;28;20037;-71
2021/12/14 06:53:13;;;;;;;81.15;38.95;;;7.80;99.90;;;;;;5053958;28;20045;-71
2021/12/14 06:55:39;;;;;;;73.55;37.50;;;7.80;99.90;;;;;;5053997;28;20045;-70
2021/12/14 06:58:27;;;;;;;76.95;37.30;;;7.80;99.90;;;;;;5053880;28;20052;-73
2021/12/14 07:00:58;;;;;;;82.35;38.83;;;7.80;99.90;;;;;;5038131;28;20109;-70
2021/12/14 07:03:35;;;;;;;75.53;37.35;;;7.80;99.90;;;;;;5053973;28;20479;-70
2021/12/14 07:06:01;;;;;;;86.47;40.50;;;7.80;99.90;;;;;;5037120;28;20043;-70
2021/12/14 07:08:27;;;;;;;80.47;40.55;;;7.80;99.90;;;;;;5053588;28;20044;-71
2021/12/14 07:10:54;;;;;;;85.18;39.92;;;7.90;99.90;;;;;;5053478;28;20122;-71
2021/12/14 07:13:38;;;;;;;82.25;38.95;;;7.80;99.90;;;;;;5052836;28;20043;-70
2021/12/14 07:16:23;;;;;;;89.45;39.70;;;7.80;99.90;;;;;;5053585;28;20379;-74
2021/12/14 07:18:53;;;;;;;88.18;41.20;;;7.80;99.90;;;;;;5053750;28;20041;-70
2021/12/14 07:21:39;;;;;;;86.10;40.80;;;7.90;99.90;;;;;;5053153;28;20052;-70
2021/12/14 07:24:23;;;;;;;88.13;40.25;;;7.80;99.90;;;;;;5053970;28;20037;-70
2021/12/14 07:27:19;;;;;;;88.93;42.30;;;7.80;99.90;;;;;;5036473;28;20475;-70
2021/12/14 07:29:46;;;;;;;85.43;41.00;;;7.90;99.90;;;;;;5053010;28;20049;-70
2021/12/14 07:32:11;;;;;;;84.10;40.00;;;7.80;99.90;;;;;;5053928;28;20041;-70
2021/12/14 07:34:37;;;;;;;82.28;40.80;;;7.80;99.90;;;;;;5053090;28;20483;-74
2021/12/14 07:37:04;;;;;;;84.53;38.55;;;7.90;99.90;;;;;;5053062;28;20053;-70
2021/12/14 07:39:29;;;;;;;87.75;40.15;;;7.90;99.90;;;;;;5036518;28;20044;-72
2021/12/14 07:41:58;;;;;;;87.38;40.38;;;7.90;99.90;;;;;;5053108;28;20033;-72
2021/12/14 07:44:32;;;;;;;82.90;40.40;;;7.90;99.90;;;;;;5052757;28;20057;-70
2021/12/14 07:47:04;;;;;;;80.90;40.80;;;7.90;99.90;;;;;;5053305;28;20044;-70
2021/12/14 07:49:32;;;;;;;88.38;41.75;;;7.90;99.90;;;;;;5053575;28;20037;-70
2021/12/14 07:52:11;;;;;;;86.75;40.42;;;7.90;99.90;;;;;;5052984;28;20048;-71
2021/12/14 07:54:40;;;;;;;88.00;41.35;;;7.90;99.90;;;;;;5052651;28;20479;-73
2021/12/14 07:57:14;;;;;;;89.60;41.95;;;8.00;99.90;;;;;;5036268;28;20056;-69
2021/12/14 07:59:49;;;;;;;84.30;41.13;;;8.00;99.90;;;;;;5053398;28;20048;-72
2021/12/14 08:02:32;;;;;;;87.28;41.35;;;8.00;99.90;;;;;;5035826;28;20158;-70
2021/12/14 08:04:59;;;;;;;84.80;41.78;;;8.00;99.90;;;;;;5035756;28;20390;-71
2021/12/14 08:07:43;;;;;;;79.20;38.55;;;8.00;99.90;;;;;;5052494;28;20045;-70
2021/12/14 08:10:21;;;;;;;89.10;40.20;;;8.00;99.90;;;;;;5052055;28;20041;-70
2021/12/14 08:13:05;;;;;;;87.47;39.90;;;8.00;99.90;;;;;;5036327;28;20439;-69
2021/12/14 08:15:35;;;;;;;83.70;38.97;;;8.00;99.90;;;;;;5052295;28;20083;-71
2021/12/14 08:18:16;;;;;;;;;;;8.00;99.90;;;;;;5052970;28;20045;-70
2021/12/14 08:20:47;;;;;;;82.15;39.25;;;8.00;99.90;;;;;;5051330;28;20286;-69
2021/12/14 08:23:35;;;;;;;87.88;41.20;;;8.00;99.90;;;;;;5051240;28;20522;-70
2021/12/14 08:26:07;;;;;;;89.65;41.95;;;8.00;99.90;;;;;;5051473;28;20116;-70
2021/12/14 08:28:53;;;;;;;92.03;40.50;;;8.00;99.90;;;;;;5051874;28;20110;-70
2021/12/14 08:31:21;;;;;;;93.38;42.47;;;8.00;99.90;;;;;;5051808;28;20051;-72
2021/12/14 08:33:58;;;;;;;92.80;42.85;;;8.00;99.90;;;;;;5051970;28;20120;-70
2021/12/14 08:36:32;;;;;;;95.43;42.03;;;8.00;99.90;;;;;;5032560;28;20140;-71
2021/12/14 08:39:24;;;;;;;101.45;44.40;;;8.00;99.90;;;;;;5032174;28;20037;-70
2021/12/14 08:41:58;;;;;;;97.35;42.47;;;8.00;99.90;;;;;;5051318;28;20056;-73
2021/12/14 08:44:38;;;;;;;98.68;42.35;;;8.10;99.90;;;;;;5052267;28;20040;-70
2021/12/14 08:47:09;;;;;;;93.70;41.80;;;8.00;99.90;;;;;;5051951;28;20037;-70
2021/12/14 08:49:36;;;;;;;102.22;43.45;;;8.00;99.90;;;;;;5052978;28;20059;-70
2021/12/14 08:52:03;;;;;;;94.80;43.00;;;8.10;99.90;;;;;;5051161;28;20558;-70
2021/12/14 08:54:32;;;;;;;94.55;42.55;;;8.10;99.90;;;;;;5051339;28;20482;-72
2021/12/14 08:57:05;;;;;;;96.28;43.47;;;8.10;99.90;;;;;;5050875;28;20520;-70
2021/12/14 08:59:31;;;;;;;98.88;42.58;;;8.10;99.90;;;;;;5051471;28;20044;-71
2021/12/14 09:01:59;;;;;;;102.40;44.78;;;8.10;99.90;;;;;;5034157;28;20040;-72
2021/12/14 09:04:32;;;;;;;97.00;42.13;;;8.10;99.90;;;;;;5051435;28;20045;-70
2021/12/14 09:07:07;;;;;;;96.93;41.60;;;8.10;99.90;;;;;;5051414;28;20098;-70
2021/12/14 09:09:33;;;;;;;89.10;41.17;;;8.10;99.90;;;;;;5034202;28;20099;-70
2021/12/14 09:11:58;;;;;;;90.18;43.20;;;8.20;99.90;;;;;;5051285;28;20040;-70
2021/12/14 09:14:24;;;;;;;88.38;41.28;;;8.20;99.90;;;;;;5051199;28;20136;-70
2021/12/14 09:16:54;;;;;;;89.05;42.53;;;8.20;99.90;;;;;;5051191;28;20468;-70
2021/12/14 09:19:36;;;;;;;86.22;40.50;;;8.20;99.90;;;;;;5051055;28;20135;-71
2021/12/14 09:22:07;;;;;;;88.25;42.50;;;8.20;99.90;;;;;;5052972;28;20493;-70
2021/12/14 09:24:34;;;;;;;86.95;41.90;;;8.20;99.90;;;;;;5055149;28;20045;-70
2021/12/14 09:27:04;;;;;;;84.63;41.03;;;8.20;99.90;;;;;;5054753;28;20040;-70
2021/12/14 09:29:31;;;;;;;89.57;42.60;;;8.20;99.90;;;;;;5054399;28;20495;-70
2021/12/14 09:31:59;;;;;;;81.38;41.05;;;8.20;99.90;;;;;;5054468;28;20049;-71
2021/12/14 09:34:28;;;;;;;83.07;41.25;;;8.20;99.90;;;;;;5054043;28;20522;-70
2021/12/14 09:36:55;;;;;;;81.15;40.75;;;8.20;99.90;;;;;;5054867;28;20103;-79
2021/12/14 09:39:29;;;;;;;81.20;40.08;;;8.20;99.90;;;;;;5037924;28;20045;-71
2021/12/14 09:41:55;;;;;;;83.57;40.88;;;8.30;99.90;;;;;;5054222;28;20040;-71
2021/12/14 09:44:26;;;;;;;82.00;41.38;;;8.20;99.90;;;;;;5037976;28;20092;-70
2021/12/14 09:46:53;;;;;;;80.72;40.58;;;8.20;99.90;;;;;;5054146;28;20067;-69
2021/12/14 09:49:19;;;;;;;79.60;40.92;;;8.30;99.90;;;;;;5054358;28;20120;-72
2021/12/14 09:51:52;;;;;;;78.85;41.15;;;8.30;99.90;;;;;;5053651;28;20123;-71
2021/12/14 09:54:22;;;;;;;79.13;40.42;;;8.30;99.90;;;;;;5054500;28;20495;-71
2021/12/14 09:56:58;;;;;;;76.35;39.47;;;8.30;99.90;;;;;;5037509;28;20454;-72
2021/12/14 09:59:24;;;;;;;75.03;40.08;;;8.40;99.90;;;;;;5054270;28;20463;-70
2021/12/14 10:01:52;;;;;;;85.95;41.42;;;8.40;99.90;;;;;;5054280;28;20048;-71
2021/12/14 10:04:36;;;;;;;78.18;40.20;;;8.40;99.90;;;;;;5053932;28;20040;-70
2021/12/14 10:07:04;;;;;;;82.15;41.30;;;8.40;99.90;;;;;;5053999;28;20099;-70
2021/12/14 10:09:37;;;;;;;79.45;39.83;;;8.40;99.90;;;;;;5037355;28;20438;-70
2021/12/14 10:12:19;;;;;;;76.28;40.92;;;8.40;99.90;;;;;;5054079;28;20037;-73
2021/12/14 10:14:48;;;;;;;89.55;41.83;;;8.50;99.90;;;;;;5053600;28;20107;-70
2021/12/14 10:17:15;;;;;;;82.15;39.70;;;8.50;99.90;;;;;;5053114;28;20067;-70
2021/12/14 10:19:44;;;;;;;79.53;39.63;;;8.40;99.90;;;;;;5045501;28;20041;-70
2021/12/14 10:22:23;;;;;;;82.80;40.20;;;8.40;99.90;;;;;;5043574;28;20037;-70
2021/12/14 10:25:11;;;;;;;80.28;40.28;;;8.50;99.90;;;;;;5044362;28;20045;-70
2021/12/14 10:27:39;;;;;;;78.28;38.65;;;8.50;99.90;;;;;;5044520;28;20044;-73
2021/12/14 10:30:10;;;;;;;73.20;38.92;;;8.50;99.90;;;;;;5044665;28;20056;-70
2021/12/14 10:32:37;;;;;;;77.25;38.58;;;8.50;99.90;;;;;;5042806;28;20038;-70
2021/12/14 10:35:09;;;;;;;76.80;38.55;;;8.50;99.90;;;;;;5050015;28;20057;-70
2021/12/14 10:37:55;;;;;;;75.20;37.58;;;8.50;99.90;;;;;;5034111;28;20052;-70
2021/12/14 10:43:15;;;;;;;80.55;39.30;;;8.50;99.90;;;;;;5051008;28;20498;-70
2021/12/14 10:45:54;;;;;;;71.55;37.40;;;8.50;99.90;;;;;;5041273;28;20033;-74
2021/12/14 10:48:23;;;;;;;71.28;36.92;;;8.60;99.90;;;;;;5054294;28;20053;-70
2021/12/14 10:50:52;;;;;;;67.75;36.28;;;8.60;99.90;;;;;;5037829;28;20094;-73
2021/12/14 10:53:20;;;;;;;70.43;36.95;;;8.60;99.90;;;;;;5037602;28;20131;-70
2021/12/14 10:55:55;;;;;;;75.00;36.88;;;8.60;99.90;;;;;;5054127;28;20127;-70
2021/12/14 10:58:24;;;;;;;73.18;37.53;;;8.60;99.90;;;;;;5053702;28;20072;-70
2021/12/14 11:01:01;;;;;;;72.20;36.63;;;8.60;99.90;;;;;;5054101;28;20368;-70
2021/12/14 11:03:33;;;;;;;70.35;36.70;;;8.60;99.90;;;;;;5054157;28;20056;-71
2021/12/14 11:06:03;;;;;;;74.22;37.50;;;8.60;99.90;;;;;;5053981;28;20033;-70
2021/12/14 11:08:44;;;;;;;72.68;36.17;;;8.60;99.90;;;;;;5053459;28;20509;-70
2021/12/14 11:11:18;;;;;;;76.50;38.08;;;8.60;99.90;;;;;;5053614;28;20037;-71
2021/12/14 11:13:55;;;;;;;81.40;38.38;;;8.60;99.90;;;;;;5052902;28;20033;-72
2021/12/14 11:18:08;;;;;;;90.05;40.67;;;8.60;99.90;;;;;;5052800;28;20624;-70
2021/12/14 11:19:18;;;;;;;88.22;37.60;;;8.60;99.90;;;;;;5052651;28;20087;-71
2021/12/14 11:21:44;;;;;;;83.85;39.00;;;8.60;99.90;;;;;;5051931;28;20449;-73
2021/12/14 11:24:10;;;;;;;87.03;39.17;;;8.60;99.90;;;;;;5052751;28;20475;-70
2021/12/14 11:26:36;;;;;;;95.18;40.13;;;8.60;99.90;;;;;;5052425;28;20048;-70
2021/12/14 11:29:13;;;;;;;96.10;40.05;;;8.50;99.90;;;;;;5052679;28;20135;-72
2021/12/14 11:31:48;;;;;;;97.00;41.28;;;8.60;99.90;;;;;;5035765;28;20091;-74
2021/12/14 11:34:31;;;;;;;104.80;42.90;;;8.50;99.90;;;;;;5052454;28;20051;-71
2021/12/14 11:37:04;;;;;;;97.20;43.00;;;8.60;99.90;;;;;;5052170;28;20556;-71
2021/12/14 11:39:41;;;;;;;109.95;42.28;;;8.60;99.90;;;;;;5052417;28;20387;-71
2021/12/14 11:42:13;;;;;;;108.18;41.75;;;8.60;99.90;;;;;;5052109;28;20506;-71
2021/12/14 11:44:45;;;;;;;105.65;41.70;;;8.60;99.90;;;;;;5051908;28;20141;-71
2021/12/14 11:47:46;;;;;;;109.55;43.38;;;8.60;99.90;;;;;;5053113;28;20120;-73
2021/12/14 11:50:17;;;;;;;105.47;40.22;;;8.60;99.90;;;;;;5052629;28;20059;-70
2021/12/14 11:52:51;;;;;;;105.25;41.92;;;8.60;99.90;;;;;;5052695;28;20128;-72
2021/12/14 11:55:20;;;;;;;114.72;43.72;;;8.60;99.90;;;;;;5053045;28;20077;-71
2021/12/14 11:57:47;;;;;;;109.20;42.75;;;8.60;99.90;;;;;;5052826;28;20133;-72
2021/12/14 12:00:18;;;;;;;109.57;42.30;;;8.60;99.90;;;;;;5051611;28;20040;-70
2021/12/14 12:02:44;;;;;;;99.55;43.05;;;8.60;99.90;;;;;;5051782;28;20045;-70
2021/12/14 12:05:16;;;;;;;109.50;42.13;;;8.60;99.90;;;;;;5050211;28;20032;-71
2021/12/14 12:10:47;;;;;;;106.68;41.58;;;8.60;99.90;;;;;;5029252;28;20047;-71
2021/12/14 12:13:12;;;;;;;104.53;41.35;;;8.60;99.90;;;;;;5051774;28;20044;-71
2021/12/14 12:15:46;;;;;;;99.25;40.40;;;8.60;99.90;;;;;;5051653;28;20041;-70
2021/12/14 12:18:11;;;;;;;97.40;39.35;;;8.60;99.90;;;;;;5051738;28;20049;-71
2021/12/14 12:20:46;;;;;;;102.97;39.25;;;8.60;99.90;;;;;;5051674;28;20041;-72
2021/12/14 12:23:15;;;;;;;85.78;36.58;;;8.70;99.90;;;;;;5050667;28;20110;-71
2021/12/14 12:25:40;;;;;;;92.28;37.25;;;8.70;99.90;;;;;;5051353;28;20029;-72
2021/12/14 12:28:15;;;;;;;88.68;36.70;;;8.60;99.90;;;;;;5051769;28;20047;-71
2021/12/14 12:31:00;;;;;;;91.43;37.00;;;8.70;99.90;;;;;;5035067;28;20110;-72
2021/12/14 12:33:40;;;;;;;90.35;35.08;;;8.70;99.90;;;;;;5051252;28;20037;-71
2021/12/14 12:36:19;;;;;;;88.60;35.03;;;8.70;99.90;;;;;;5051712;28;20059;-71
2021/12/14 12:39:06;;;;;;;92.78;36.75;;;8.70;99.90;;;;;;5051679;28;20040;-70
2021/12/14 12:41:46;;;;;;;90.05;35.33;;;8.70;99.90;;;;;;5034937;28;20052;-71
2021/12/14 12:44:19;;;;;;;84.00;35.70;;;8.70;99.90;;;;;;5052290;28;20136;-71
2021/12/14 12:47:04;;;;;;;81.85;33.35;;;8.70;99.90;;;;;;5051150;28;20348;-71
2021/12/14 12:49:35;;;;;;;100.82;36.70;;;8.70;99.90;;;;;;5051386;28;20075;-71
2021/12/14 12:52:13;;;;;;;92.38;33.50;;;8.70;99.90;;;;;;5051336;28;20083;-71
2021/12/14 12:55:00;;;;;;;104.75;36.70;;;8.70;99.90;;;;;;5050952;28;20071;-71
2021/12/14 12:57:34;;;;;;;79.10;31.98;;;8.70;99.90;;;;;;5054675;28;20114;-71
2021/12/14 13:00:09;;;;;;;76.63;31.45;;;8.70;99.90;;;;;;5055335;28;20502;-71
2021/12/14 13:02:46;;;;;;;81.35;32.33;;;8.70;99.90;;;;;;5038640;28;20124;-71
2021/12/14 13:05:23;;;;;;;72.47;29.73;;;8.70;99.90;;;;;;5055368;28;20488;-71
2021/12/14 13:07:55;;;;;;;76.00;28.85;;;8.70;99.90;;;;;;5055451;28;20044;-71
2021/12/14 13:10:27;;;;;;;75.82;30.80;;;8.70;99.90;;;;;;5055320;28;20091;-71
2021/12/14 13:13:14;;;;;;;75.97;30.50;;;8.80;99.90;;;;;;5054863;28;20140;-71
2021/12/14 13:15:48;;;;;;;79.75;31.55;;;8.70;99.90;;;;;;5055223;28;20045;-71
2021/12/14 13:18:36;;;;;;;72.97;29.98;;;8.80;99.90;;;;;;5055219;28;20052;-71
2021/12/14 13:21:20;;;;;;;69.47;29.13;;;8.80;99.90;;;;;;5055001;28;20044;-72
2021/12/14 13:24:00;;;;;;;72.15;30.58;;;8.80;99.90;;;;;;5053334;28;20542;-71
2021/12/14 13:26:32;;;;;;;75.20;30.50;;;8.80;99.90;;;;;;5054828;28;20037;-70
2021/12/14 13:29:11;;;;;;;70.82;29.38;;;8.80;99.90;;;;;;5054959;28;20110;-72
2021/12/14 13:31:39;;;;;;;67.60;29.00;;;8.80;99.90;;;;;;5054874;28;20068;-71
2021/12/14 13:34:15;;;;;;;69.95;29.90;;;8.80;99.90;;;;;;5037794;28;20128;-71
2021/12/14 13:36:43;;;;;;;71.85;30.00;;;8.80;99.90;;;;;;5054850;28;20053;-70
2021/12/14 13:39:11;;;;;;;73.43;30.95;;;8.80;99.90;;;;;;5054834;28;20053;-72
2021/12/14 13:41:59;;;;;;;73.93;30.40;;;8.90;99.90;;;;;;5054281;28;20426;-70
2021/12/14 13:44:33;;;;;;;71.15;30.52;;;8.90;99.90;;;;;;5054304;28;20049;-70